Decoded Metar for LFMN (NICE in FRANCE) (IATA:NCE) | Meteo·Mobile Aviation Weather
aviador You're here:

LFMN Decoded Metar

NICE in FRANCE
Report Time2018-09-21 09:30:00
UTC Time2018-09-21 09:42:53
Flight Rules vfr VFR
Wind170° at 07 kt
W.Decomp.*RWY 22: 4.4 kt HW 5.4 kt LCW
W.Rank170° ranks 14
Current wind is above 170° avg. (5.5)
Visibility9999 m
Phenomena:N/A
Clouds:Few 040 Hf
Expected CloudBase > 3,600 ft AGL from Temp-Dew spread
CeilingNone
Temp28°C (ISA +13)
Dew Point19°C (58% RH)
Heat Index29.2°C
QNH1016 hPa
Density Alt1,726 ft
Elevation33 ft
Report Wrong Elevation
Raw Report
LFMN 210930Z 17007KT 9999 FEW040 28/19 Q1016 NOSIG=

Extra information for LFMN:More info

Metar Taf Metar & Taf Last 4 Metars F.Rules Stats Wind Profile Meteogram Temp Stats Airport Information Weather charts Add Link Nearby VenuesMetar ALERT Operation Metar Decoded Social comments